WetterOnline ( https://www.wetteronline.at )

Wetter aktuell Greifswalder Bodden

Aktuelles Wetter: Greifswalder Oie (12m)

6-stündlich | Neueste Meldungen
Ortszeit Temperatur Wetter
Mo, 16.09. 20:00 14.7° C wolkig
Mo, 16.09. 14:00 16.0° C bewölkt
Mo, 16.09. 8:00 13.7° C leicht bewölkt
Mo, 16.09. 2:00 14.3° C wolkig
So, 15.09. 20:00 16.2° C bedeckt
So, 15.09. 14:00 18.2° C bewölkt
So, 15.09. 8:00 13.3° C bewölkt
So, 15.09. 2:00 14.2° C wolkig
Ortszeit Temperatur Wetter
Mo, 16.09. 23:40 13.9° C wolkig
Mo, 16.09. 23:30 14.1° C leicht bewölkt
Mo, 16.09. 23:20 14.1° C leicht bewölkt
Mo, 16.09. 23:10 14.0° C fast wolkenlos
Mo, 16.09. 23:00 14.0° C wolkenlos
Mo, 16.09. 22:50 14.0° C wolkenlos
Mo, 16.09. 22:30 14.0° C wolkenlos
Mo, 16.09. 22:00 14.2° C wolkig
Mo, 16.09. 21:30 14.4° C leicht bewölkt
Mo, 16.09. 21:00 14.5° C wolkenlos
Mo, 16.09. 20:30 14.5° C leicht bewölkt
Ortszeit Relative Feuchte Sichtweite
Mo, 16.09. 20:00 67% 40 km
Mo, 16.09. 14:00 62% 27 km
Mo, 16.09. 8:00 68% 26 km
Mo, 16.09. 2:00 68% 20 km
So, 15.09. 20:00 70% 28 km
So, 15.09. 14:00 69% 40 km
So, 15.09. 8:00 68% 40 km
So, 15.09. 2:00 69% 45 km
Ortszeit Relative Feuchte Sichtweite
Mo, 16.09. 23:40 74% -
Mo, 16.09. 23:30 74% 40 km
Mo, 16.09. 23:20 74% -
Mo, 16.09. 23:10 74% -
Mo, 16.09. 23:00 73% 40 km
Mo, 16.09. 22:50 73% -
Mo, 16.09. 22:30 72% 35 km
Mo, 16.09. 22:00 70% 45 km
Mo, 16.09. 21:30 69% 40 km
Mo, 16.09. 21:00 69% 35 km
Mo, 16.09. 20:30 68% 40 km
Ortszeit Niederschlagsmenge Niederschlagsart
Mo, 16.09. 20:00 0.1 l/m2 in 12 Std. Regen
Mo, 16.09. 14:00 0.1 l/m2 in 6 Std. Regen
Mo, 16.09. 8:00 0.0 l/m2 in 12 Std. -
Mo, 16.09. 2:00 0.0 l/m2 in 6 Std. -
So, 15.09. 20:00 0.3 l/m2 in 12 Std. Regen
So, 15.09. 14:00 0.0 l/m2 in 6 Std. -
So, 15.09. 8:00 0.0 l/m2 in 12 Std. -
So, 15.09. 2:00 0.0 l/m2 in 6 Std. -
Ortszeit Niederschlagsmenge Niederschlagsart
Mo, 16.09. 23:40 keine Meldung -
Mo, 16.09. 23:30 0.0 l/m2 in 1 Std. -
Mo, 16.09. 23:20 keine Meldung -
Mo, 16.09. 23:10 keine Meldung -
Mo, 16.09. 23:00 0.0 l/m2 in 1 Std. -
Mo, 16.09. 22:50 keine Meldung -
Mo, 16.09. 22:30 0.0 l/m2 in 1 Std. -
Mo, 16.09. 22:00 0.0 l/m2 in 1 Std. -
Mo, 16.09. 21:30 0.0 l/m2 in 1 Std. -
Mo, 16.09. 21:00 0.0 l/m2 in 1 Std. -
Mo, 16.09. 20:30 0.0 l/m2 in 1 Std. -
Ortszeit Stärke Spitze Richtung
km/h Bft. km/h Grad Sektor
Mo, 16.09. 20:00 36 5 61 300° NW
Mo, 16.09. 14:00 47 6 68 290° W
Mo, 16.09. 8:00 50 7 68 300° NW
Mo, 16.09. 2:00 50 7 72 290° W
So, 15.09. 20:00 50 7 68 290° W
So, 15.09. 14:00 43 6 61 250° W
So, 15.09. 8:00 41 6 52 220° SW
So, 15.09. 2:00 31 5 37 220° SW
Ortszeit Stärke Spitze Richtung
km/h Bft. km/h Grad Sektor
Mo, 16.09. 23:40 43 6 - 290° W
Mo, 16.09. 23:30 43 6 52 290° W
Mo, 16.09. 23:20 43 6 - 290° W
Mo, 16.09. 23:10 43 6 - 290° W
Mo, 16.09. 23:00 41 6 52 280° W
Mo, 16.09. 22:50 41 6 - 280° W
Mo, 16.09. 22:30 43 6 50 290° W
Mo, 16.09. 22:00 44 6 57 290° W
Mo, 16.09. 21:30 46 6 57 280° W
Mo, 16.09. 21:00 41 6 50 280° W
Mo, 16.09. 20:30 41 6 46 280° W
Ortszeit Untergrenze Bedeckung Gattung
total tief tief mittel hoch
Mo, 16.09. 20:00 990 m 6/8 6/8 - - -
Mo, 16.09. 14:00 1140 m 7/8 7/8 - - -
Mo, 16.09. 8:00 1200 m 3/8 1/8 - - -
Mo, 16.09. 2:00 1170 m 5/8 5/8 - - -
So, 15.09. 20:00 2700 m 8/8 8/8 - - -
So, 15.09. 14:00 900 m 7/8 7/8 - - -
So, 15.09. 8:00 6600 m 8/8 4/8 - - -
So, 15.09. 2:00 9000 m 8/8 0/8 - - -
Ortszeit Bedeckungsgrad in Achtel und Wolkenuntergrenze
Mo, 16.09. 23:40 3(1800m) 4(8400m) 6(9000m)
Mo, 16.09. 23:30 2(8400m) 4(9000m)
Mo, 16.09. 23:20 2(8400m) 4(9000m)
Mo, 16.09. 23:10 1(8400m)
Mo, 16.09. 23:00 keine Wolken
Mo, 16.09. 22:50 keine Wolken
Mo, 16.09. 22:30 keine Wolken
Mo, 16.09. 22:00 5(1380m)
Mo, 16.09. 21:30 3(1500m) 6(1500m)
Mo, 16.09. 21:00 keine Wolken
Mo, 16.09. 20:30 1(990m) 4(1230m)
Ortszeit Luftdruck NN (hPa) Tendenz (hPa in 3 Std.)
Mo, 16.09. 20:00 1015 - 0,2
Mo, 16.09. 14:00 1015 - 0,1
Mo, 16.09. 8:00 1015 0,0
Mo, 16.09. 2:00 1016 + 0,7
So, 15.09. 20:00 1015 + 0,6
So, 15.09. 14:00 1015 - 1,0
So, 15.09. 8:00 1018 - 3,5
So, 15.09. 2:00 1025 - 2,8
Ortszeit Luftdruck NN (hPa) Tendenz (hPa in 3 Std.)
Mo, 16.09. 23:40 1014 keine Meldung
Mo, 16.09. 23:30 1014 - 0,6
Mo, 16.09. 23:20 1014 keine Meldung
Mo, 16.09. 23:10 1014 keine Meldung
Mo, 16.09. 23:00 1014 - 0,5
Mo, 16.09. 22:50 1014 keine Meldung
Mo, 16.09. 22:30 1014 - 0,3
Mo, 16.09. 22:00 1014 - 0,3
Mo, 16.09. 21:30 1014 - 0,1
Mo, 16.09. 21:00 1014 - 0,2
Mo, 16.09. 20:30 1015 - 0,2
Ortszeit Schneehöhe (cm)
Mo, 16.09. 20:00 -
Mo, 16.09. 14:00 -
Mo, 16.09. 8:00 -
Mo, 16.09. 2:00 -
So, 15.09. 20:00 -
So, 15.09. 14:00 -
So, 15.09. 8:00 -
So, 15.09. 2:00 -
Ortszeit Schneehöhe (cm)
Mo, 16.09. 23:40 -
Mo, 16.09. 23:30 -
Mo, 16.09. 23:20 -
Mo, 16.09. 23:10 -
Mo, 16.09. 23:00 -
Mo, 16.09. 22:50 -
Mo, 16.09. 22:30 -
Mo, 16.09. 22:00 -
Mo, 16.09. 21:30 -
Mo, 16.09. 21:00 -
Mo, 16.09. 20:30 -
Link zu dieser Seite / Seite empfehlen

Das Wetter in ...